• Join FlightAware (Why Join?)
  • Login
  • US Flag 
12:50PM EDT


 

Airport Tracker/Info


-or-


 

Live Flight TrackerFlight Track Log ✈ AAL1491 ✈ 25-May-2013 ✈ KDCA - KDFW

Flight Track Log - Related Links

Times and Time Zones

All times are in EDT time to prevent confusion due to time zone crossing. See the AAL1491 flight status page for this flight to view local times or setup timezone preferences in your user account.

Time Position Orientation Groundspeed Altitude Reporting Facility
EDT Latitude Longitude Course Direction KTS MPH feet Rate Location/Type
11:19AM 38.8740 -77.0500 313° West 150 173 1,400  Level FlightAware
11:19AM 38.8810 -77.0620 307° West 173 199 1,700 1,500 Climbing FlightAware
11:20AM 38.8990 -77.0830 318° Northwest 208 239 2,400 3,000 Climbing FlightAware
11:20AM 38.9430 -77.1310 320° Northwest 234 269 5,500 3,600 Climbing FlightAware
11:21AM 38.9650 -77.1540 321° Northwest 236 272 7,200 3,360 Climbing FlightAware
11:21AM 38.9810 -77.1720 319° Northwest 243 280 8,000 3,300 Climbing FlightAware
11:22AM 38.9960 -77.2030 302° West 248 285 9,400 3,300 Climbing FlightAware
11:22AM 38.9980 -77.2250 277° West 257 296 10,200 1,980 Climbing FlightAware
11:22AM 38.9870 -77.2640 250° West 306 352 10,800 1,320 Climbing FlightAware
11:23AM 38.9700 -77.2820 219° Southwest 341 392 11,100 2,460 Climbing FlightAware
11:23AM 38.9180 -77.3320 217° Southwest 350 403 13,000 2,400 Climbing FlightAware
11:24AM 38.8520 -77.3960 217° Southwest 370 426 14,700 1,200 Climbing FlightAware
11:25AM 38.7970 -77.4490 217° Southwest 367 422 14,800 60 Climbing FlightAware
11:25AM 38.7380 -77.5060 217° Southwest 363 418 14,800  Level FlightAware
11:26AM 38.6860 -77.5560 217° Southwest 377 434 14,800 1,260 Level FlightAware
11:27AM 38.6290 -77.6110 217° Southwest 385 443 16,500 2,460 Climbing FlightAware
11:27AM 38.5640 -77.6740 217° Southwest 393 452 18,300 2,280 Climbing FlightAware
11:28AM 38.5080 -77.7340 220° Southwest 391 450 19,800 2,160 Climbing FlightAware
11:29AM 38.4620 -77.8130 233° Southwest 383 441 21,400 2,100 Climbing FlightAware
11:30AM 38.4220 -77.8910 237° Southwest 388 447 22,800 1,740 Climbing FlightAware
11:30AM 38.3780 -77.9750 236° Southwest 404 465 23,900 1,440 Climbing FlightAware
11:31AM 38.3330 -78.0600 236° Southwest 417 480 24,900 1,380 Climbing FlightAware
11:32AM 38.2850 -78.1510 236° Southwest 427 491 25,900 1,320 Climbing FlightAware
11:32AM 38.2510 -78.2150 236° Southwest 433 498 26,600 1,260 Climbing FlightAware
11:33AM 38.1940 -78.3230 236° Southwest 441 507 27,700 1,500 Climbing FlightAware
11:34AM 38.1470 -78.4110 236° Southwest 439 505 28,900 1,980 Climbing FlightAware
11:34AM 38.1090 -78.4960 240° Southwest 409 471 30,400 1,320 Climbing FlightAware
11:36AM 38.0450 -78.6860 247° West 416 479 32,000 660 Climbing FlightAware
11:37AM 38.0020 -78.8120 247° West 417 480 32,000  Level FlightAware
11:38AM 37.9630 -78.9250 246° West 416 479 32,000  Level FlightAware
11:38AM 37.9300 -79.0220 247° West 415 478 32,000 480 Level FlightAware
11:39AM 37.8950 -79.1180 245° Southwest 422 486 32,700 480 Climbing FlightAware
11:40AM 37.8660 -79.1910 243° Southwest 422 486 32,700 480 Level FlightAware
11:40AM 37.8090 -79.2900 234° Southwest 440 506 33,400 480 Climbing FlightAware
11:41AM 37.7770 -79.3520 237° Southwest 440 506 33,400  Level FlightAware
11:42AM 37.7300 -79.4440 237° Southwest 440 506 33,400 1,620 Level FlightAware
11:43AM 37.6550 -79.5980 238° Southwest 436 502 36,300 1,860 Climbing FlightAware
11:43AM 37.6230 -79.6600 237° Southwest 436 502 36,300  Level FlightAware
11:44AM 37.5780 -79.7490 237° Southwest 436 502 36,300  Level FlightAware
11:45AM 37.5430 -79.8160 237° Southwest 436 502 36,300  Level FlightAware
11:46AM 37.5020 -79.8960 237° Southwest 436 502 36,300  Level FlightAware
11:46AM 37.4570 -79.9830 237° Southwest 436 502 36,300  Level FlightAware
11:47AM 37.4240 -80.0480 237° Southwest 436 502 36,300  Level FlightAware
11:48AM 37.3810 -80.1310 237° Southwest 436 502 36,300  Level FlightAware
11:48AM 37.3470 -80.1960 237° Southwest 436 502 36,300  Level FlightAware
11:49AM 37.3010 -80.2850 237° Southwest 436 502 36,300  Level FlightAware
11:50AM 37.2250 -80.4330 237° Southwest 436 502 36,300 660 Level FlightAware
11:52AM 37.0817 -80.7301 239° Southwest 432 497 38,000 1,020 Climbing FlightAware ADS-B
11:52AM 37.0552 -80.8046 246° West 432 497 38,000  Level FlightAware ADS-B
11:53AM 37.0305 -80.8743 246° West 433 498 38,000  Level FlightAware ADS-B
11:53AM 37.0033 -80.9509 246° West 431 496 38,000  Level FlightAware ADS-B
11:54AM 36.9624 -81.0661 246° West 429 494 38,000  Level FlightAware ADS-B
11:55AM 36.9379 -81.1349 246° West 430 495 38,000  Level FlightAware ADS-B
11:55AM 36.9135 -81.2031 246° West 431 496 38,000  Level FlightAware ADS-B
11:56AM 36.8824 -81.2896 246° West 432 497 38,000  Level FlightAware ADS-B
11:56AM 36.8569 -81.3600 246° West 432 497 38,000  Level FlightAware ADS-B
11:57AM 36.8320 -81.4288 246° West 432 497 38,000  Level FlightAware ADS-B
11:57AM 36.8068 -81.4985 246° West 432 497 38,000  Level FlightAware ADS-B
11:58AM 36.7817 -81.5674 246° West 433 498 38,000  Level FlightAware ADS-B
11:58AM 36.7446 -81.6696 246° West 434 499 38,000  Level FlightAware ADS-B
11:59AM 36.7197 -81.7381 246° West 433 498 38,000  Level FlightAware ADS-B
11:59AM 36.6944 -81.8075 246° West 433 498 38,000  Level FlightAware ADS-B
12:00PM 36.6681 -81.8793 245° Southwest 434 499 38,000  Level FlightAware ADS-B
12:01PM 36.6428 -81.9484 245° Southwest 435 501 38,000  Level FlightAware ADS-B
12:01PM 36.6165 -82.0196 245° Southwest 437 503 38,000  Level FlightAware ADS-B
12:02PM 36.5911 -82.0884 245° Southwest 438 504 38,000  Level FlightAware ADS-B
12:02PM 36.5655 -82.1577 245° Southwest 439 505 38,000  Level FlightAware ADS-B
12:03PM 36.5393 -82.2285 245° Southwest 441 507 38,000  Level FlightAware ADS-B
12:03PM 36.5121 -82.3018 245° Southwest 441 507 38,000  Level FlightAware ADS-B
12:04PM 36.4847 -82.3753 245° Southwest 443 510 38,000  Level FlightAware ADS-B
12:04PM 36.4589 -82.4448 245° Southwest 444 511 38,000  Level FlightAware ADS-B
12:05PM 36.4310 -82.5192 245° Southwest 446 513 38,000  Level FlightAware ADS-B
12:05PM 36.4013 -82.5985 245° Southwest 446 513 38,000  Level FlightAware ADS-B
12:06PM 36.3743 -82.6702 245° Southwest 446 513 38,000  Level FlightAware ADS-B
12:06PM 36.3465 -82.7443 245° Southwest 447 514 38,000  Level FlightAware ADS-B
12:07PM 36.3155 -82.8263 245° Southwest 447 514 38,000  Level FlightAware ADS-B
12:07PM 36.2872 -82.9013 245° Southwest 447 514 38,000  Level FlightAware ADS-B
12:08PM 36.2605 -82.9716 245° Southwest 448 516 38,000  Level FlightAware ADS-B
12:08PM 36.2330 -83.0440 245° Southwest 449 517 38,000  Level FlightAware ADS-B
12:09PM 36.1929 -83.1491 245° Southwest 451 519 38,000  Level FlightAware ADS-B
12:10PM 36.1661 -83.2192 245° Southwest 452 520 38,000  Level FlightAware ADS-B
12:10PM 36.1313 -83.3099 245° Southwest 453 521 38,000  Level FlightAware ADS-B
12:11PM 36.1034 -83.3823 245° Southwest 453 521 38,000  Level FlightAware ADS-B
12:11PM 36.0757 -83.4544 245° Southwest 454 522 38,000  Level FlightAware ADS-B
12:12PM 36.0459 -83.5317 245° Southwest 453 521 38,000  Level FlightAware ADS-B
12:12PM 36.0184 -83.6028 244° Southwest 454 522 38,000  Level FlightAware ADS-B
12:13PM 35.9901 -83.6761 245° Southwest 454 522 38,000  Level FlightAware ADS-B
12:13PM 35.9627 -83.7460 244° Southwest 455 524 38,000  Level FlightAware ADS-B
12:14PM 35.9354 -83.8162 244° Southwest 454 522 38,000  Level FlightAware ADS-B
12:14PM 35.9187 -83.8606 245° Southwest 451 519 38,000  Level FlightAware ADS-B
12:15PM 35.9075 -83.8994 250° West 444 511 38,000  Level FlightAware ADS-B
12:15PM 35.8984 -83.9478 257° West 436 502 38,000  Level FlightAware ADS-B
12:15PM 35.8892 -84.0211 261° West 435 501 38,000  Level FlightAware ADS-B
12:16PM 35.8793 -84.1006 261° West 435 501 38,000  Level FlightAware ADS-B
12:16PM 35.8699 -84.1748 261° West 435 501 38,000  Level FlightAware ADS-B
12:17PM 35.8601 -84.2526 261° West 435 501 38,000  Level FlightAware ADS-B
12:18PM 35.8488 -84.3403 261° West 435 501 38,000  Level FlightAware ADS-B
12:18PM 35.8391 -84.4166 261° West 437 503 38,000  Level FlightAware ADS-B
12:19PM 35.8294 -84.4919 261° West 438 504 38,000  Level FlightAware ADS-B
12:19PM 35.8197 -84.5680 261° West 438 504 38,000  Level FlightAware ADS-B
12:20PM 35.8090 -84.6504 261° West 439 505 38,000  Level FlightAware ADS-B
12:20PM 35.7988 -84.7274 261° West 437 503 38,000  Level FlightAware ADS-B
12:21PM 35.7889 -84.8022 261° West 434 499 38,000  Level FlightAware ADS-B
12:21PM 35.7790 -84.8774 261° West 433 498 38,000  Level FlightAware ADS-B
12:22PM 35.7678 -84.9618 261° West 434 499 38,000  Level FlightAware ADS-B
12:22PM 35.7557 -85.0517 261° West 437 503 38,000  Level FlightAware ADS-B
12:23PM 35.7433 -85.1454 261° West 439 505 38,000  Level FlightAware ADS-B
12:24PM 35.7292 -85.2515 261° West 441 507 38,000  Level FlightAware ADS-B
12:24PM 35.7180 -85.3332 260° West 445 512 38,000  Level FlightAware ADS-B
12:25PM 35.7054 -85.4246 260° West 446 513 38,000  Level FlightAware ADS-B
12:25PM 35.6952 -85.4997 261° West 448 516 38,000  Level FlightAware ADS-B
12:26PM 35.6828 -85.5904 260° West 447 514 38,000  Level FlightAware ADS-B
12:27PM 35.6721 -85.6677 260° West 447 514 38,000  Level FlightAware ADS-B
12:27PM 35.6610 -85.7500 261° West 445 512 38,000  Level FlightAware
12:28PM 35.6513 -85.8154 260° West 445 512 38,000  Level FlightAware ADS-B
12:28PM 35.6404 -85.8916 260° West 445 512 38,000  Level FlightAware ADS-B
12:29PM 35.6297 -85.9683 260° West 443 510 38,000  Level FlightAware ADS-B
12:29PM 35.6130 -86.0862 260° West 443 510 38,000  Level FlightAware ADS-B
12:30PM 35.6015 -86.1666 260° West 440 506 38,000  Level FlightAware ADS-B
12:31PM 35.5850 -86.2800 260° West 437 503 38,000  Level FlightAware
12:31PM 35.5700 -86.3830 260° West 437 503 38,000  Level FlightAware
12:32PM 35.5560 -86.4820 260° West 437 503 38,000  Level FlightAware
12:33PM 35.5420 -86.5850 261° West 439 505 38,000  Level FlightAware
12:33PM 35.5270 -86.6930 260° West 438 504 38,000  Level FlightAware
12:34PM 35.5130 -86.7920 260° West 438 504 38,000  Level FlightAware
12:35PM 35.5040 -86.8490 259° West 436 502 38,000  Level FlightAware
12:35PM 35.4850 -86.9860 260° West 434 499 38,000  Level FlightAware
12:36PM 35.4700 -87.0870 260° West 434 499 38,000  Level FlightAware
12:37PM 35.4550 -87.1890 260° West 434 499 38,000  Level FlightAware
12:38PM 35.4410 -87.2910 260° West 434 499 38,000  Level FlightAware
12:38PM 35.4270 -87.3860 260° West 434 499 38,000  Level FlightAware
12:39PM 35.4110 -87.4890 259° West 436 502 38,000  Level FlightAware
12:40PM 35.3980 -87.5790 260° West 436 502 38,000  Level FlightAware
12:40PM 35.3830 -87.6810 260° West 437 503 38,000  Level FlightAware
12:41PM 35.3660 -87.7900 259° West 437 503 38,000  Level FlightAware
12:42PM 35.3540 -87.8660 259° West 437 503 38,000  Level FlightAware
12:43PM 35.3380 -87.9660 259° West 437 503 38,000  Level FlightAware
12:43PM 35.3270 -88.0400 260° West 437 503 38,000  Level FlightAware
12:44PM 35.3100 -88.1410 258° West 437 503 38,000  Level FlightAware
12:45PM 35.2990 -88.2160 260° West 437 503 38,000  Level FlightAware
12:45PM 35.2840 -88.3110 259° West 437 503 38,000  Level FlightAware
12:46PM 35.2720 -88.3850 259° West 437 503 38,000  Level FlightAware
12:47PM 35.2560 -88.4840 259° West 437 503 38,000  Level FlightAware
12:47PM 35.2440 -88.5590 259° West 437 503 38,000  Level FlightAware
12:48PM 35.2280 -88.6600 259° West 437 503 38,000  Level FlightAware
12:49PM 35.2160 -88.7340 259° West 437 503 38,000  Level FlightAware
12:50PM 35.2000 -88.8380 259° West 437 503 38,000  Level FlightAware
12:50PM 35.1870 -88.9200 259° West 437 503 38,000  Level FlightAware
12:51PM 35.1358 -89.2600 259° West 420 483 38,000  Level Memphis Center
12:52PM 35.1122 -89.4000 258° West 425 489 38,000  Level Memphis Center
12:53PM 35.0922 -89.5425 260° West 425 489 38,000  Level Memphis Center
12:54PM 35.0703 -89.6847 259° West 430 495 38,000  Level Memphis Center
12:55PM 35.0481 -89.8294 259° West 430 495 38,000  Level Memphis Center
12:56PM 35.0233 -89.9742 258° West 436 502 38,000  Level Memphis Center
12:57PM 34.9989 -90.1189 258° West 436 502 38,000  Level Memphis Center
12:58PM 34.9781 -90.2608 260° West 436 502 38,000  Level Memphis Center
12:59PM 34.9594 -90.3875 260° West 436 502 38,000  Level Memphis Center
01:00PM 34.9364 -90.5319 259° West 431 496 38,000  Level Memphis Center
01:01PM 34.9153 -90.6736 260° West 431 496 38,000  Level Memphis Center
01:02PM 34.8917 -90.8153 259° West 431 496 38,000  Level Memphis Center
01:08PM 34.7600 -91.6680 259° West 433 498 38,000  Level FlightAware
01:09PM 34.7470 -91.7540 260° West 433 498 38,000  Level FlightAware
01:10PM 34.7290 -91.8610 258° West 433 498 38,000  Level FlightAware
01:11PM 34.7070 -92.0000 259° West 433 498 38,000  Level FlightAware
01:12PM 34.6920 -92.0950 259° West 433 498 38,000  Level FlightAware
01:12PM 34.6800 -92.1700 259° West 433 498 38,000  Level FlightAware
01:13PM 34.6640 -92.2680 259° West 433 498 38,000  Level FlightAware
01:14PM 34.6530 -92.3390 259° West 433 498 38,000  Level FlightAware
01:15PM 34.6380 -92.4330 259° West 433 498 38,000  Level FlightAware
01:16PM 34.6190 -92.5480 259° West 433 498 38,000  Level FlightAware
01:16PM 34.6080 -92.6210 260° West 433 498 38,000  Level FlightAware
01:17PM 34.5930 -92.7150 259° West 433 498 38,000  Level FlightAware
01:18PM 34.5810 -92.7880 259° West 433 498 38,000  Level FlightAware
01:18PM 34.5650 -92.8850 259° West 433 498 38,000  Level FlightAware
01:19PM 34.4100 -93.1892 259° West 425 489 38,000  Level Memphis Center
01:20PM 34.3714 -93.3239 251° West 425 489 38,000  Level Memphis Center
01:21PM 34.3403 -93.4497 253° West 427 491 38,000  Level Fort Worth Center
01:27PM 34.1420 -94.1580 253° West 411 473 38,000  Level FlightAware
01:27PM 34.1160 -94.2510 251° West 411 473 38,000  Level FlightAware
01:28PM 34.0970 -94.3150 250° West 411 473 38,000  Level FlightAware
01:29PM 34.0720 -94.4040 251° West 411 473 38,000  Level FlightAware
01:29PM 34.0520 -94.4720 250° West 411 473 38,000 -480 Level FlightAware
01:31PM 33.9940 -94.6210 245° Southwest 417 480 37,100 -480 Descending FlightAware
01:31PM 33.9700 -94.6920 248° West 417 480 37,100 -1,020 Level FlightAware
01:32PM 33.9030 -94.8980 249° West 430 495 35,500 -1,020 Descending FlightAware
01:33PM 33.8800 -94.9680 248° West 430 495 35,500 -3,540 Level FlightAware
01:34PM 33.8410 -95.0890 249° West 436 502 30,800 -4,500 Descending FlightAware
01:34PM 33.8090 -95.1870 249° West 426 490 29,000 -2,340 Descending FlightAware
01:35PM 33.7930 -95.2350 248° West 421 484 28,100 -2,460 Descending FlightAware
01:36PM 33.7570 -95.3420 248° West 409 471 26,100 -2,460 Descending FlightAware
01:36PM 33.7290 -95.4250 248° West 400 460 24,600 -2,280 Descending FlightAware
01:37PM 33.7020 -95.5060 248° West 393 452 23,100 -1,860 Descending FlightAware
01:38PM 33.6710 -95.6000 248° West 387 445 22,000 -1,080 Descending FlightAware
01:38PM 33.6450 -95.6780 248° West 389 448 21,600 -840 Descending FlightAware
01:39PM 33.6160 -95.7620 248° West 385 443 20,900 -1,020 Descending FlightAware
01:40PM 33.5880 -95.8450 248° West 383 441 20,200 -1,140 Descending FlightAware
01:41PM 33.5590 -95.9310 248° West 374 430 19,300 -1,800 Descending FlightAware
01:41PM 33.5350 -96.0030 248° West 373 429 17,800 -2,460 Descending FlightAware
01:42PM 33.5050 -96.0900 248° West 368 423 15,900 -2,520 Descending FlightAware
01:43PM 33.4800 -96.1620 247° West 365 420 14,300 -2,580 Descending FlightAware
01:43PM 33.4520 -96.2450 248° West 361 415 12,400 -2,460 Descending FlightAware
01:44PM 33.4260 -96.3210 248° West 353 406 10,800 -1,200 Descending FlightAware
01:45PM 33.4040 -96.3860 248° West 295 339 10,800  Level FlightAware
01:45PM 33.3930 -96.4050 235° Southwest 280 322 10,800 -1,260 Level FlightAware
01:46PM 33.3660 -96.4770 246° West 284 327 9,500 -1,620 Descending FlightAware
01:46PM 33.3590 -96.4990 249° West 281 323 9,100 -1,500 Descending FlightAware
01:46PM 33.3490 -96.5350 252° West 279 321 8,500 -1,500 Descending FlightAware
01:47PM 33.3370 -96.5750 250° West 277 319 7,800 -1,320 Descending FlightAware
01:47PM 33.3240 -96.6150 249° West 272 313 7,300 -1,080 Descending FlightAware
01:48PM 33.3140 -96.6490 251° West 271 312 6,900 -900 Descending FlightAware
01:48PM 33.3010 -96.6910 250° West 268 308 6,500 -1,020 Descending FlightAware
01:49PM 33.2900 -96.7280 250° West 265 305 6,000 -1,080 Descending FlightAware
01:49PM 33.2770 -96.7700 250° West 262 302 5,500 -1,020 Descending FlightAware
01:50PM 33.2680 -96.8010 251° West 263 303 5,100 -780 Descending FlightAware
01:50PM 33.2550 -96.8440 250° West 259 298 4,800 -300 Descending FlightAware
01:51PM 33.2570 -96.8850 273° West 247 284 4,800  Level FlightAware
01:51PM 33.2630 -96.9220 281° West 237 273 4,800 -120 Level FlightAware
01:52PM 33.2700 -96.9580 283° West 235 270 4,700 -600 Descending FlightAware
01:52PM 33.2720 -96.9730 279° West 235 270 4,400 -1,260 Descending FlightAware
01:52PM 33.2590 -97.0050 244° Southwest 207 238 3,800 -600 Descending FlightAware
01:53PM 33.2350 -97.0210 209° Southwest 202 232 3,800  Level FlightAware
01:53PM 33.2240 -97.0240 193° South 199 229 3,800  Level FlightAware
01:53PM 33.2090 -97.0250 183° South 198 228 3,800 -120 Level FlightAware
01:54PM 33.1790 -97.0250 180° South 179 206 3,700 -300 Descending FlightAware
01:54PM 33.1540 -97.0250 180° South 169 194 3,500 -240 Descending FlightAware
01:56PM 33.1350 -97.0250 180° South 170 196 3,300 -420 Descending FlightAware
01:56PM 33.0650 -97.0250 180° South 167 192 2,800 -540 Descending FlightAware
01:57PM 33.0440 -97.0250 180° South 169 194 2,800 -480 Level FlightAware
01:57PM 33.0200 -97.0250 180° South 180 207 2,400 -1,020 Descending FlightAware
01:58PM 32.9980 -97.0260 182° South 171 197 1,900 -960 Descending FlightAware
01:58PM 32.9820 -97.0260 180° South 159 183 1,600 -720 Descending FlightAware
01:58PM 32.9620 -97.0260 180° South 144 166 1,300 -360 Descending FlightAware
01:59PM 32.9470 -97.0260 180° South 144 166 1,300  Level FlightAware